createdAt,value
2022-11-29T00:01:30.475Z,27.77
2022-11-29T00:05:42.107Z,28.77
2022-11-29T00:09:53.639Z,31.37
2022-11-29T00:14:06.791Z,29.27
2022-11-29T00:18:18.329Z,28.63
2022-11-29T00:22:30.146Z,29.00
2022-11-29T00:26:41.736Z,30.23
2022-11-29T00:30:53.360Z,29.30
2022-11-29T00:35:09.647Z,26.48
2022-11-29T00:39:21.640Z,28.70
2022-11-29T00:43:33.726Z,31.67
2022-11-29T00:47:45.249Z,31.30
2022-11-29T00:51:56.776Z,32.07
2022-11-29T00:56:08.641Z,34.27
2022-11-29T01:00:20.501Z,33.67
2022-11-29T01:04:32.115Z,31.33
2022-11-29T01:08:45.655Z,31.70
2022-11-29T01:12:57.257Z,32.40
2022-11-29T01:17:08.825Z,31.70
2022-11-29T01:21:22.816Z,31.23
2022-11-29T01:25:34.348Z,32.10
2022-11-29T01:29:45.927Z,30.97
2022-11-29T01:34:00.146Z,30.30
2022-11-29T01:38:11.680Z,31.07
2022-11-29T01:42:23.425Z,29.93
2022-11-29T01:46:38.399Z,32.70
2022-11-29T01:50:50.835Z,31.43
2022-11-29T01:55:05.435Z,32.63
2022-11-29T01:59:21.893Z,31.00
2022-11-29T02:03:33.537Z,30.17
2022-11-29T02:07:50.001Z,30.60
2022-11-29T02:12:19.852Z,30.17
2022-11-29T02:16:40.861Z,29.50
2022-11-29T02:21:47.210Z,28.40
2022-11-29T02:26:35.612Z,29.40
2022-11-29T02:31:05.322Z,32.10
2022-11-29T02:35:29.129Z,30.07
2022-11-29T02:40:06.970Z,29.43
2022-11-29T02:44:21.377Z,30.40
2022-11-29T02:48:46.308Z,29.63
2022-11-29T02:53:22.838Z,30.20
2022-11-29T02:57:58.488Z,32.75
2022-11-29T03:02:40.370Z,33.27
2022-11-29T03:07:25.455Z,30.47
2022-11-29T03:12:06.928Z,33.13
2022-11-29T03:16:44.772Z,33.80
2022-11-29T03:21:05.402Z,32.37
2022-11-29T03:25:32.889Z,30.40
2022-11-29T03:29:55.618Z,32.53
2022-11-29T03:34:44.095Z,32.10
2022-11-29T03:39:00.875Z,32.20
2022-11-29T03:43:26.793Z,32.73
2022-11-29T03:47:57.967Z,32.30
2022-11-29T03:52:26.695Z,31.27
2022-11-29T03:56:40.537Z,33.60
2022-11-29T04:01:13.845Z,31.60
2022-11-29T04:05:41.020Z,31.30
2022-11-29T04:10:25.514Z,33.73
2022-11-29T04:15:23.468Z,35.23
2022-11-29T04:19:53.967Z,30.43
2022-11-29T04:24:34.872Z,30.23
2022-11-29T04:28:49.408Z,28.90
2022-11-29T04:33:21.434Z,30.17
2022-11-29T04:37:57.818Z,28.93
2022-11-29T04:42:18.678Z,28.10
2022-11-29T04:46:56.461Z,25.90
2022-11-29T04:51:29.851Z,25.33
2022-11-29T04:56:11.192Z,26.40
2022-11-29T05:00:24.321Z,27.03
2022-11-29T05:04:53.268Z,27.97
2022-11-29T05:09:17.355Z,27.50
2022-11-29T05:13:45.339Z,27.60
2022-11-29T05:18:07.525Z,26.27
2022-11-29T05:22:32.032Z,28.33
2022-11-29T05:27:11.001Z,24.57
2022-11-29T05:31:52.839Z,26.20
2022-11-29T05:36:42.055Z,28.33
2022-11-29T05:41:01.627Z,26.87
2022-11-29T05:45:19.298Z,29.63
2022-11-29T05:50:03.196Z,26.80
2022-11-29T05:54:19.849Z,25.93
2022-11-29T05:58:44.700Z,26.47
2022-11-29T06:03:19.743Z,27.33
2022-11-29T06:07:39.665Z,26.57
2022-11-29T06:12:14.866Z,29.37
2022-11-29T06:17:05.942Z,29.60
2022-11-29T06:21:39.120Z,31.07
2022-11-29T06:26:18.002Z,28.87
2022-11-29T06:30:53.573Z,28.80
2022-11-29T06:35:13.241Z,23.87
2022-11-29T06:39:25.067Z,23.00
2022-11-29T06:43:36.853Z,23.70
2022-11-29T06:48:28.095Z,23.03
2022-11-29T06:52:58.456Z,23.63
2022-11-29T06:57:12.997Z,24.17
2022-11-29T07:01:41.993Z,25.37
2022-11-29T07:05:53.868Z,28.17
2022-11-29T07:10:10.577Z,23.97
2022-11-29T07:14:25.497Z,26.13
2022-11-29T07:19:14.428Z,26.90
2022-11-29T07:23:43.721Z,27.07
2022-11-29T07:28:26.466Z,24.87
2022-11-29T07:32:43.641Z,23.73
2022-11-29T07:37:04.779Z,22.07
2022-11-29T07:41:32.223Z,23.27
2022-11-29T07:45:43.885Z,23.33
2022-11-29T07:49:55.434Z,22.57
2022-11-29T07:54:07.164Z,22.17
2022-11-29T07:58:19.059Z,20.30
2022-11-29T08:02:32.331Z,20.73
2022-11-29T08:06:43.959Z,20.77
2022-11-29T08:10:55.577Z,23.47
2022-11-29T08:15:08.738Z,29.20
2022-11-29T08:19:20.335Z,24.57
2022-11-29T08:23:31.903Z,21.47
2022-11-29T08:27:43.529Z,23.43
2022-11-29T08:31:55.331Z,21.70
2022-11-29T08:36:15.994Z,21.63
2022-11-29T08:40:27.618Z,21.20
2022-11-29T08:44:39.209Z,19.93
2022-11-29T08:48:50.746Z,18.20
2022-11-29T08:53:43.700Z,18.83
2022-11-29T08:58:01.866Z,17.63
2022-11-29T09:02:13.446Z,17.90
2022-11-29T09:06:26.500Z,17.50
2022-11-29T09:10:42.187Z,16.07
2022-11-29T09:14:53.755Z,16.53
2022-11-29T09:19:05.768Z,18.07
2022-11-29T09:23:17.322Z,17.80
2022-11-29T09:27:28.958Z,16.63
2022-11-29T09:31:40.593Z,16.87
2022-11-29T09:35:58.084Z,14.87
2022-11-29T09:40:18.175Z,15.03
2022-11-29T09:44:48.614Z,18.17
2022-11-29T09:49:09.354Z,17.50
2022-11-29T09:53:48.053Z,16.17
2022-11-29T09:58:01.527Z,15.80
2022-11-29T10:02:22.464Z,14.33
2022-11-29T10:06:40.791Z,13.83
2022-11-29T10:11:36.088Z,12.50
2022-11-29T10:15:53.247Z,14.47
2022-11-29T10:20:17.111Z,13.50
2022-11-29T10:24:29.839Z,14.57
2022-11-29T10:28:48.570Z,13.90
2022-11-29T10:33:00.674Z,12.80
2022-11-29T10:37:22.445Z,14.70
2022-11-29T10:41:35.751Z,15.73
2022-11-29T10:45:56.127Z,13.97
2022-11-29T10:50:13.308Z,13.32
2022-11-29T10:54:38.410Z,13.83
2022-11-29T10:58:56.389Z,12.52
2022-11-29T11:03:33.940Z,11.37
2022-11-29T11:07:47.419Z,10.87
2022-11-29T11:12:02.872Z,11.50
2022-11-29T11:16:24.268Z,11.70
2022-11-29T11:20:40.344Z,12.07
2022-11-29T11:25:01.128Z,12.10
2022-11-29T11:29:22.457Z,11.88
2022-11-29T11:33:42.364Z,11.80
2022-11-29T11:37:56.813Z,11.50
2022-11-29T11:42:33.628Z,12.30
2022-11-29T11:46:50.267Z,13.40
2022-11-29T11:51:03.418Z,12.05
2022-11-29T11:55:21.201Z,13.20
2022-11-29T11:59:33.948Z,11.75
2022-11-29T12:03:52.830Z,11.77
2022-11-29T12:08:08.124Z,11.53
2022-11-29T12:12:26.206Z,11.43
2022-11-29T12:16:39.202Z,12.25
2022-11-29T12:21:17.556Z,12.52
2022-11-29T12:25:35.979Z,11.85
2022-11-29T12:29:47.569Z,12.45
2022-11-29T12:34:10.230Z,12.30
2022-11-29T12:38:49.561Z,14.20
2022-11-29T12:43:23.040Z,13.55
2022-11-29T12:47:40.992Z,13.68
2022-11-29T12:52:03.955Z,13.77
2022-11-29T12:56:34.247Z,12.80
2022-11-29T13:00:52.466Z,13.57
2022-11-29T13:05:19.086Z,13.65
2022-11-29T13:10:14.967Z,13.43
2022-11-29T13:14:43.889Z,12.30
2022-11-29T13:19:03.149Z,12.93
2022-11-29T13:24:07.870Z,11.88
2022-11-29T13:28:39.573Z,13.80
2022-11-29T13:32:59.041Z,12.17
2022-11-29T13:37:53.561Z,10.57
2022-11-29T13:42:25.087Z,12.23
2022-11-29T13:47:08.562Z,11.97
2022-11-29T13:51:30.566Z,12.23
2022-11-29T13:55:59.810Z,13.63
2022-11-29T14:00:39.785Z,13.57
2022-11-29T14:04:52.370Z,11.93
2022-11-29T14:09:21.054Z,12.10
2022-11-29T14:13:49.967Z,12.20
2022-11-29T14:18:07.251Z,13.07
2022-11-29T14:22:22.155Z,13.90
2022-11-29T14:26:33.819Z,18.10
2022-11-29T14:30:51.047Z,15.60
2022-11-29T14:35:11.806Z,16.00
2022-11-29T14:39:33.166Z,14.50
2022-11-29T14:43:44.837Z,13.55
2022-11-29T14:47:57.402Z,13.77
2022-11-29T14:52:21.575Z,14.30
2022-11-29T14:56:35.031Z,14.20
2022-11-29T15:00:49.546Z,14.43
2022-11-29T15:05:16.744Z,14.33
2022-11-29T15:09:30.075Z,16.10
2022-11-29T15:13:55.038Z,15.87
2022-11-29T15:18:19.994Z,15.13
2022-11-29T15:22:46.780Z,16.00
2022-11-29T15:27:01.064Z,16.40
2022-11-29T15:31:16.214Z,15.63
2022-11-29T15:35:28.544Z,16.20
2022-11-29T15:39:40.251Z,15.00
2022-11-29T15:43:55.897Z,14.70
2022-11-29T15:48:24.096Z,15.50
2022-11-29T15:52:38.417Z,16.20
2022-11-29T15:57:00.642Z,14.35
2022-11-29T16:01:20.019Z,16.13
2022-11-29T16:05:35.104Z,19.27
2022-11-29T16:09:56.943Z,16.27
2022-11-29T16:14:11.420Z,15.93
2022-11-29T16:18:25.483Z,15.47
2022-11-29T16:22:37.092Z,19.37
2022-11-29T16:26:50.930Z,18.00
2022-11-29T16:31:04.779Z,19.90
2022-11-29T16:35:22.125Z,18.17
2022-11-29T16:39:36.983Z,18.47
2022-11-29T16:43:55.195Z,20.57
2022-11-29T16:48:21.917Z,19.90
2022-11-29T16:52:34.415Z,20.40
2022-11-29T16:56:45.988Z,22.40
2022-11-29T17:00:57.552Z,20.60
2022-11-29T17:05:09.128Z,20.87
2022-11-29T17:09:27.120Z,19.70
2022-11-29T17:13:38.837Z,19.77
2022-11-29T17:17:50.427Z,18.57
2022-11-29T17:22:02.110Z,19.50
2022-11-29T17:26:15.436Z,17.87
2022-11-29T17:30:28.870Z,17.40
2022-11-29T17:34:40.441Z,17.33
2022-11-29T17:38:52.194Z,17.57
2022-11-29T17:43:03.766Z,17.53
2022-11-29T17:47:15.353Z,17.03
2022-11-29T17:56:09.951Z,17.13
2022-11-29T18:00:21.556Z,16.83
2022-11-29T18:04:33.150Z,22.57
2022-11-29T18:08:47.710Z,18.00
2022-11-29T18:12:59.273Z,17.47
2022-11-29T18:17:10.945Z,16.50
2022-11-29T18:21:22.830Z,15.83
2022-11-29T18:25:39.121Z,18.33
2022-11-29T18:29:51.507Z,17.00
2022-11-29T18:34:06.983Z,19.40
2022-11-29T18:38:18.833Z,18.37
2022-11-29T18:42:30.432Z,19.67
2022-11-29T18:46:44.040Z,18.17
2022-11-29T18:50:55.606Z,20.97
2022-11-29T18:55:07.555Z,18.83
2022-11-29T18:59:19.169Z,18.50
2022-11-29T19:03:34.106Z,18.30
2022-11-29T19:07:45.733Z,19.07
2022-11-29T19:11:57.326Z,18.93
2022-11-29T19:16:13.407Z,16.83
2022-11-29T19:20:25.582Z,17.60
2022-11-29T19:24:37.069Z,17.17
2022-11-29T19:28:48.683Z,17.20
2022-11-29T19:33:00.246Z,16.60
2022-11-29T19:37:11.896Z,16.23
2022-11-29T19:41:26.190Z,16.23
2022-11-29T19:45:40.941Z,16.00
2022-11-29T19:49:52.885Z,16.73
2022-11-29T19:54:07.095Z,15.07
2022-11-29T19:58:20.820Z,15.90
2022-11-29T20:02:32.548Z,15.60
2022-11-29T20:06:44.527Z,15.47
2022-11-29T20:10:56.433Z,18.83
2022-11-29T20:15:08.328Z,17.80
2022-11-29T20:19:21.580Z,16.93
2022-11-29T20:23:33.658Z,16.80
2022-11-29T20:27:45.203Z,16.90
2022-11-29T20:31:56.848Z,16.20
2022-11-29T20:36:25.771Z,16.30
2022-11-29T20:40:50.967Z,15.37
2022-11-29T20:45:11.261Z,15.10
2022-11-29T20:49:23.006Z,14.40
2022-11-29T20:53:40.152Z,14.80
2022-11-29T20:57:51.723Z,13.53
2022-11-29T21:02:03.649Z,13.53
2022-11-29T21:06:15.370Z,13.53
2022-11-29T21:10:26.956Z,14.73
2022-11-29T21:14:38.844Z,14.77
2022-11-29T21:18:58.898Z,13.70
2022-11-29T21:23:27.046Z,13.97
2022-11-29T21:27:38.843Z,14.27
2022-11-29T21:31:53.826Z,14.27
2022-11-29T21:36:06.192Z,14.97
2022-11-29T21:40:17.813Z,14.40
2022-11-29T21:44:29.367Z,15.87
2022-11-29T21:48:42.432Z,15.60
2022-11-29T21:52:55.020Z,16.30
2022-11-29T21:57:06.652Z,16.67
2022-11-29T22:01:20.105Z,16.23
2022-11-29T22:05:31.724Z,18.03
2022-11-29T22:09:43.347Z,17.63
2022-11-29T22:14:13.617Z,18.50
2022-11-29T22:18:27.832Z,15.73
2022-11-29T22:22:39.433Z,16.67
2022-11-29T22:26:52.571Z,15.67
2022-11-29T22:31:12.294Z,16.57
2022-11-29T22:35:23.958Z,15.30
2022-11-29T22:39:35.524Z,15.13
2022-11-29T22:43:47.117Z,14.50
2022-11-29T22:47:58.717Z,14.77
2022-11-29T22:52:10.308Z,15.27
2022-11-29T22:56:27.746Z,14.97
2022-11-29T23:00:44.029Z,14.60
2022-11-29T23:04:55.760Z,15.03
2022-11-29T23:09:16.602Z,14.10
2022-11-29T23:13:28.440Z,14.50
2022-11-29T23:17:40.159Z,14.33
2022-11-29T23:21:51.975Z,13.83
2022-11-29T23:26:07.348Z,14.60
2022-11-29T23:30:18.886Z,13.30
2022-11-29T23:34:30.402Z,12.83
2022-11-29T23:38:42.267Z,12.97
2022-11-29T23:42:54.158Z,13.53
2022-11-29T23:47:05.626Z,13.27
2022-11-29T23:51:18.613Z,13.73
2022-11-29T23:55:30.165Z,12.67
2022-11-29T23:59:41.636Z,13.33
